sensor_id;sensor_type;location;lat;lon;timestamp;temperature;humidity
11666;DHT22;5889;51.350;6.708;2023-03-14T00:02:25;11.60;99.90
11666;DHT22;5889;51.350;6.708;2023-03-14T00:04:54;11.60;99.90
11666;DHT22;5889;51.350;6.708;2023-03-14T00:07:20;11.60;99.90
11666;DHT22;5889;51.350;6.708;2023-03-14T00:09:49;11.70;99.90
11666;DHT22;5889;51.350;6.708;2023-03-14T00:12:16;11.70;99.90
11666;DHT22;5889;51.350;6.708;2023-03-14T00:14:44;11.70;99.90
11666;DHT22;5889;51.350;6.708;2023-03-14T00:17:11;11.70;99.90
11666;DHT22;5889;51.350;6.708;2023-03-14T00:19:39;11.70;99.90
11666;DHT22;5889;51.350;6.708;2023-03-14T00:22:06;11.80;99.90
11666;DHT22;5889;51.350;6.708;2023-03-14T00:24:33;11.80;99.90
11666;DHT22;5889;51.350;6.708;2023-03-14T00:26:59;11.80;99.90
11666;DHT22;5889;51.350;6.708;2023-03-14T00:29:26;11.80;99.90
11666;DHT22;5889;51.350;6.708;2023-03-14T00:31:54;11.90;99.90
11666;DHT22;5889;51.350;6.708;2023-03-14T00:34:21;11.80;99.90
11666;DHT22;5889;51.350;6.708;2023-03-14T00:36:47;11.60;99.90
11666;DHT22;5889;51.350;6.708;2023-03-14T00:39:14;11.40;99.90
11666;DHT22;5889;51.350;6.708;2023-03-14T00:41:41;11.30;99.90
11666;DHT22;5889;51.350;6.708;2023-03-14T00:44:08;11.10;99.90
11666;DHT22;5889;51.350;6.708;2023-03-14T00:46:35;11.00;99.90
11666;DHT22;5889;51.350;6.708;2023-03-14T00:49:03;10.90;99.90
11666;DHT22;5889;51.350;6.708;2023-03-14T00:51:29;10.70;99.90
11666;DHT22;5889;51.350;6.708;2023-03-14T00:53:56;10.70;99.90
11666;DHT22;5889;51.350;6.708;2023-03-14T00:56:23;10.60;99.90
11666;DHT22;5889;51.350;6.708;2023-03-14T00:58:53;10.60;99.90
11666;DHT22;5889;51.350;6.708;2023-03-14T01:01:20;10.60;99.90
11666;DHT22;5889;51.350;6.708;2023-03-14T01:03:51;10.50;99.90
11666;DHT22;5889;51.350;6.708;2023-03-14T01:06:20;10.50;99.90
11666;DHT22;5889;51.350;6.708;2023-03-14T01:08:48;10.40;99.90
11666;DHT22;5889;51.350;6.708;2023-03-14T01:11:17;10.40;99.90
11666;DHT22;5889;51.350;6.708;2023-03-14T01:13:44;10.40;99.90
11666;DHT22;5889;51.350;6.708;2023-03-14T01:16:12;10.50;99.90
11666;DHT22;5889;51.350;6.708;2023-03-14T01:18:40;10.50;99.90
11666;DHT22;5889;51.350;6.708;2023-03-14T01:21:11;10.50;99.90
11666;DHT22;5889;51.350;6.708;2023-03-14T01:23:40;10.50;99.90
11666;DHT22;5889;51.350;6.708;2023-03-14T01:26:09;10.50;99.90
11666;DHT22;5889;51.350;6.708;2023-03-14T01:28:36;10.40;99.90
11666;DHT22;5889;51.350;6.708;2023-03-14T01:31:03;10.40;99.90
11666;DHT22;5889;51.350;6.708;2023-03-14T01:33:30;10.40;99.90
11666;DHT22;5889;51.350;6.708;2023-03-14T01:35:57;10.40;99.90
11666;DHT22;5889;51.350;6.708;2023-03-14T01:38:24;10.30;99.90
11666;DHT22;5889;51.350;6.708;2023-03-14T01:40:52;10.20;99.90
11666;DHT22;5889;51.350;6.708;2023-03-14T01:43:20;10.20;99.90
11666;DHT22;5889;51.350;6.708;2023-03-14T01:46:19;10.20;99.90
11666;DHT22;5889;51.350;6.708;2023-03-14T01:48:50;10.20;99.90
11666;DHT22;5889;51.350;6.708;2023-03-14T01:51:20;10.20;99.90
11666;DHT22;5889;51.350;6.708;2023-03-14T01:53:49;10.20;99.90
11666;DHT22;5889;51.350;6.708;2023-03-14T01:56:19;10.20;99.90
11666;DHT22;5889;51.350;6.708;2023-03-14T01:58:48;10.20;99.90
11666;DHT22;5889;51.350;6.708;2023-03-14T02:01:17;10.20;99.90
11666;DHT22;5889;51.350;6.708;2023-03-14T02:03:48;10.20;99.90
11666;DHT22;5889;51.350;6.708;2023-03-14T02:06:17;10.30;99.90
11666;DHT22;5889;51.350;6.708;2023-03-14T02:08:46;10.20;99.90
11666;DHT22;5889;51.350;6.708;2023-03-14T02:11:14;10.30;99.90
11666;DHT22;5889;51.350;6.708;2023-03-14T02:13:42;10.30;99.90
11666;DHT22;5889;51.350;6.708;2023-03-14T02:16:09;10.30;99.90
11666;DHT22;5889;51.350;6.708;2023-03-14T02:18:37;10.30;99.90
11666;DHT22;5889;51.350;6.708;2023-03-14T02:21:11;10.30;99.90
11666;DHT22;5889;51.350;6.708;2023-03-14T02:23:45;10.30;99.90
11666;DHT22;5889;51.350;6.708;2023-03-14T02:26:18;10.30;99.90
11666;DHT22;5889;51.350;6.708;2023-03-14T02:28:47;10.30;99.90
11666;DHT22;5889;51.350;6.708;2023-03-14T02:31:14;10.30;99.90
11666;DHT22;5889;51.350;6.708;2023-03-14T02:33:41;10.40;99.90
11666;DHT22;5889;51.350;6.708;2023-03-14T02:36:11;10.40;99.90
11666;DHT22;5889;51.350;6.708;2023-03-14T02:38:45;10.40;99.90
11666;DHT22;5889;51.350;6.708;2023-03-14T02:41:13;10.40;99.90
11666;DHT22;5889;51.350;6.708;2023-03-14T02:43:39;10.40;99.90
11666;DHT22;5889;51.350;6.708;2023-03-14T02:46:10;10.40;99.90
11666;DHT22;5889;51.350;6.708;2023-03-14T02:48:41;10.30;99.90
11666;DHT22;5889;51.350;6.708;2023-03-14T02:51:10;10.30;99.90
11666;DHT22;5889;51.350;6.708;2023-03-14T02:53:37;10.30;99.90
11666;DHT22;5889;51.350;6.708;2023-03-14T02:56:06;10.30;99.90
11666;DHT22;5889;51.350;6.708;2023-03-14T02:58:33;10.30;99.90
11666;DHT22;5889;51.350;6.708;2023-03-14T03:00:59;10.30;99.90
11666;DHT22;5889;51.350;6.708;2023-03-14T03:03:28;10.30;99.90
11666;DHT22;5889;51.350;6.708;2023-03-14T03:05:55;10.30;99.90
11666;DHT22;5889;51.350;6.708;2023-03-14T03:08:24;10.30;99.90
11666;DHT22;5889;51.350;6.708;2023-03-14T03:10:52;10.30;99.90
11666;DHT22;5889;51.350;6.708;2023-03-14T03:13:19;10.20;99.90
11666;DHT22;5889;51.350;6.708;2023-03-14T03:15:46;10.30;99.90
11666;DHT22;5889;51.350;6.708;2023-03-14T03:18:13;10.30;99.90
11666;DHT22;5889;51.350;6.708;2023-03-14T03:20:41;10.30;99.90
11666;DHT22;5889;51.350;6.708;2023-03-14T03:23:08;10.30;99.90
11666;DHT22;5889;51.350;6.708;2023-03-14T03:25:35;10.20;99.90
11666;DHT22;5889;51.350;6.708;2023-03-14T03:28:01;10.20;99.90
11666;DHT22;5889;51.350;6.708;2023-03-14T03:30:33;10.20;99.90
11666;DHT22;5889;51.350;6.708;2023-03-14T03:33:00;10.20;99.90
11666;DHT22;5889;51.350;6.708;2023-03-14T03:35:26;10.20;99.90
11666;DHT22;5889;51.350;6.708;2023-03-14T03:37:55;10.20;99.90
11666;DHT22;5889;51.350;6.708;2023-03-14T03:40:21;10.20;99.90
11666;DHT22;5889;51.350;6.708;2023-03-14T03:42:48;10.20;99.90
11666;DHT22;5889;51.350;6.708;2023-03-14T03:45:15;10.20;99.90
11666;DHT22;5889;51.350;6.708;2023-03-14T03:47:41;10.20;99.90
11666;DHT22;5889;51.350;6.708;2023-03-14T03:50:09;10.20;99.90
11666;DHT22;5889;51.350;6.708;2023-03-14T03:52:36;10.20;99.90
11666;DHT22;5889;51.350;6.708;2023-03-14T03:55:05;10.20;99.90
11666;DHT22;5889;51.350;6.708;2023-03-14T03:57:31;10.20;99.90
11666;DHT22;5889;51.350;6.708;2023-03-14T03:59:58;10.20;99.90
11666;DHT22;5889;51.350;6.708;2023-03-14T04:02:25;10.20;99.90
11666;DHT22;5889;51.350;6.708;2023-03-14T04:04:52;10.20;99.90
11666;DHT22;5889;51.350;6.708;2023-03-14T04:07:18;10.10;99.90
11666;DHT22;5889;51.350;6.708;2023-03-14T04:09:45;10.10;99.90
11666;DHT22;5889;51.350;6.708;2023-03-14T04:12:13;10.00;99.90
11666;DHT22;5889;51.350;6.708;2023-03-14T04:14:40;9.90;99.90
11666;DHT22;5889;51.350;6.708;2023-03-14T04:17:07;9.80;99.90
11666;DHT22;5889;51.350;6.708;2023-03-14T04:19:34;9.80;99.90
11666;DHT22;5889;51.350;6.708;2023-03-14T04:22:01;9.70;99.90
11666;DHT22;5889;51.350;6.708;2023-03-14T04:24:27;9.70;99.90
11666;DHT22;5889;51.350;6.708;2023-03-14T04:26:54;9.70;99.90
11666;DHT22;5889;51.350;6.708;2023-03-14T04:29:22;9.60;99.90
11666;DHT22;5889;51.350;6.708;2023-03-14T04:31:49;9.60;99.90
11666;DHT22;5889;51.350;6.708;2023-03-14T04:34:16;9.50;99.90
11666;DHT22;5889;51.350;6.708;2023-03-14T04:36:42;9.50;99.90
11666;DHT22;5889;51.350;6.708;2023-03-14T04:39:09;9.40;99.90
11666;DHT22;5889;51.350;6.708;2023-03-14T04:41:36;9.40;99.90
11666;DHT22;5889;51.350;6.708;2023-03-14T04:44:02;9.40;99.90
11666;DHT22;5889;51.350;6.708;2023-03-14T04:46:30;9.40;99.90
11666;DHT22;5889;51.350;6.708;2023-03-14T04:48:57;9.30;99.90
11666;DHT22;5889;51.350;6.708;2023-03-14T04:51:24;9.30;99.90
11666;DHT22;5889;51.350;6.708;2023-03-14T04:53:53;9.20;99.90
11666;DHT22;5889;51.350;6.708;2023-03-14T04:56:20;9.20;99.90
11666;DHT22;5889;51.350;6.708;2023-03-14T04:58:47;9.20;99.90
11666;DHT22;5889;51.350;6.708;2023-03-14T05:01:14;9.20;99.90
11666;DHT22;5889;51.350;6.708;2023-03-14T05:03:42;9.20;99.90
11666;DHT22;5889;51.350;6.708;2023-03-14T05:06:09;9.20;99.90
11666;DHT22;5889;51.350;6.708;2023-03-14T05:08:35;9.20;99.90
11666;DHT22;5889;51.350;6.708;2023-03-14T05:11:02;9.20;99.90
11666;DHT22;5889;51.350;6.708;2023-03-14T05:13:29;9.20;99.90
11666;DHT22;5889;51.350;6.708;2023-03-14T05:16:03;9.20;99.90
11666;DHT22;5889;51.350;6.708;2023-03-14T05:18:30;9.20;99.90
11666;DHT22;5889;51.350;6.708;2023-03-14T05:20:58;9.20;99.90
11666;DHT22;5889;51.350;6.708;2023-03-14T05:23:25;9.20;99.90
11666;DHT22;5889;51.350;6.708;2023-03-14T05:25:53;9.20;99.90
11666;DHT22;5889;51.350;6.708;2023-03-14T05:28:19;9.20;99.90
11666;DHT22;5889;51.350;6.708;2023-03-14T05:30:46;9.20;99.90
11666;DHT22;5889;51.350;6.708;2023-03-14T05:33:13;9.20;99.90
11666;DHT22;5889;51.350;6.708;2023-03-14T05:35:40;9.20;99.90
11666;DHT22;5889;51.350;6.708;2023-03-14T05:38:09;9.20;99.90
11666;DHT22;5889;51.350;6.708;2023-03-14T05:40:36;9.30;99.90
11666;DHT22;5889;51.350;6.708;2023-03-14T05:43:02;9.20;99.90
11666;DHT22;5889;51.350;6.708;2023-03-14T05:45:29;9.20;99.90
11666;DHT22;5889;51.350;6.708;2023-03-14T05:47:56;9.20;99.90
11666;DHT22;5889;51.350;6.708;2023-03-14T05:50:22;9.20;99.90
11666;DHT22;5889;51.350;6.708;2023-03-14T05:52:49;9.20;99.90
11666;DHT22;5889;51.350;6.708;2023-03-14T05:55:17;9.30;99.90
11666;DHT22;5889;51.350;6.708;2023-03-14T05:57:44;9.30;99.90
11666;DHT22;5889;51.350;6.708;2023-03-14T06:00:12;9.30;99.90
11666;DHT22;5889;51.350;6.708;2023-03-14T06:02:38;9.30;99.90
11666;DHT22;5889;51.350;6.708;2023-03-14T06:05:06;9.40;99.90
11666;DHT22;5889;51.350;6.708;2023-03-14T06:07:33;9.50;99.90
11666;DHT22;5889;51.350;6.708;2023-03-14T06:10:00;9.50;99.90
11666;DHT22;5889;51.350;6.708;2023-03-14T06:12:28;9.50;99.90
11666;DHT22;5889;51.350;6.708;2023-03-14T06:14:55;9.50;99.90
11666;DHT22;5889;51.350;6.708;2023-03-14T06:17:21;9.60;99.90
11666;DHT22;5889;51.350;6.708;2023-03-14T06:19:48;9.60;99.90
11666;DHT22;5889;51.350;6.708;2023-03-14T06:22:15;9.60;99.90
11666;DHT22;5889;51.350;6.708;2023-03-14T06:24:42;9.70;99.90
11666;DHT22;5889;51.350;6.708;2023-03-14T06:27:09;9.70;99.90
11666;DHT22;5889;51.350;6.708;2023-03-14T06:29:37;9.70;99.90
11666;DHT22;5889;51.350;6.708;2023-03-14T06:32:04;9.80;99.90
11666;DHT22;5889;51.350;6.708;2023-03-14T06:34:31;9.80;99.90
11666;DHT22;5889;51.350;6.708;2023-03-14T06:36:57;9.80;99.90
11666;DHT22;5889;51.350;6.708;2023-03-14T06:39:24;9.80;99.90
11666;DHT22;5889;51.350;6.708;2023-03-14T06:41:51;9.90;99.90
11666;DHT22;5889;51.350;6.708;2023-03-14T06:44:18;9.90;99.90
11666;DHT22;5889;51.350;6.708;2023-03-14T06:46:46;10.00;99.90
11666;DHT22;5889;51.350;6.708;2023-03-14T06:49:13;10.00;99.90
11666;DHT22;5889;51.350;6.708;2023-03-14T06:51:39;10.00;99.90
11666;DHT22;5889;51.350;6.708;2023-03-14T06:54:06;10.00;99.90
11666;DHT22;5889;51.350;6.708;2023-03-14T06:56:33;10.00;99.90
11666;DHT22;5889;51.350;6.708;2023-03-14T06:58:59;10.00;99.90
11666;DHT22;5889;51.350;6.708;2023-03-14T07:01:28;10.10;99.90
11666;DHT22;5889;51.350;6.708;2023-03-14T07:03:56;10.10;99.90
11666;DHT22;5889;51.350;6.708;2023-03-14T07:06:23;10.10;99.90
11666;DHT22;5889;51.350;6.708;2023-03-14T07:08:50;10.20;99.90
11666;DHT22;5889;51.350;6.708;2023-03-14T07:11:17;10.20;99.90
11666;DHT22;5889;51.350;6.708;2023-03-14T07:13:44;10.30;99.90
11666;DHT22;5889;51.350;6.708;2023-03-14T07:16:10;10.30;99.90
11666;DHT22;5889;51.350;6.708;2023-03-14T07:18:37;10.30;99.90
11666;DHT22;5889;51.350;6.708;2023-03-14T07:21:06;10.30;99.90
11666;DHT22;5889;51.350;6.708;2023-03-14T07:23:34;10.40;99.90
11666;DHT22;5889;51.350;6.708;2023-03-14T07:26:01;10.40;99.90
11666;DHT22;5889;51.350;6.708;2023-03-14T07:28:28;10.50;99.90
11666;DHT22;5889;51.350;6.708;2023-03-14T07:30:55;10.50;99.90
11666;DHT22;5889;51.350;6.708;2023-03-14T07:33:22;10.50;99.90
11666;DHT22;5889;51.350;6.708;2023-03-14T07:35:49;10.50;99.90
11666;DHT22;5889;51.350;6.708;2023-03-14T07:38:17;10.40;99.90
11666;DHT22;5889;51.350;6.708;2023-03-14T07:40:44;10.50;99.90
11666;DHT22;5889;51.350;6.708;2023-03-14T07:43:11;10.50;99.90
11666;DHT22;5889;51.350;6.708;2023-03-14T07:45:37;10.50;99.90
11666;DHT22;5889;51.350;6.708;2023-03-14T07:48:04;10.50;99.90
11666;DHT22;5889;51.350;6.708;2023-03-14T07:50:31;10.40;99.90
11666;DHT22;5889;51.350;6.708;2023-03-14T07:52:58;10.40;99.90
11666;DHT22;5889;51.350;6.708;2023-03-14T07:55:26;10.40;99.90
11666;DHT22;5889;51.350;6.708;2023-03-14T07:57:52;10.50;99.90
11666;DHT22;5889;51.350;6.708;2023-03-14T08:00:20;10.50;99.90
11666;DHT22;5889;51.350;6.708;2023-03-14T08:02:47;10.60;99.90
11666;DHT22;5889;51.350;6.708;2023-03-14T08:05:13;10.70;99.90
11666;DHT22;5889;51.350;6.708;2023-03-14T08:07:40;10.70;99.90
11666;DHT22;5889;51.350;6.708;2023-03-14T08:10:08;10.80;99.90
11666;DHT22;5889;51.350;6.708;2023-03-14T08:12:36;10.80;99.90
11666;DHT22;5889;51.350;6.708;2023-03-14T08:15:04;10.90;99.90
11666;DHT22;5889;51.350;6.708;2023-03-14T08:17:32;10.90;99.90
11666;DHT22;5889;51.350;6.708;2023-03-14T08:20:02;11.00;99.90
11666;DHT22;5889;51.350;6.708;2023-03-14T08:22:34;11.00;99.90
11666;DHT22;5889;51.350;6.708;2023-03-14T08:25:00;11.00;99.90
11666;DHT22;5889;51.350;6.708;2023-03-14T08:27:27;11.10;99.90
11666;DHT22;5889;51.350;6.708;2023-03-14T08:29:55;11.10;99.90
11666;DHT22;5889;51.350;6.708;2023-03-14T08:32:22;11.10;99.90
11666;DHT22;5889;51.350;6.708;2023-03-14T08:34:49;11.10;99.90
11666;DHT22;5889;51.350;6.708;2023-03-14T08:37:16;11.10;99.90
11666;DHT22;5889;51.350;6.708;2023-03-14T08:39:44;11.10;99.90
11666;DHT22;5889;51.350;6.708;2023-03-14T08:42:11;11.00;99.90
11666;DHT22;5889;51.350;6.708;2023-03-14T08:44:37;10.90;99.90
11666;DHT22;5889;51.350;6.708;2023-03-14T08:47:06;10.90;99.90
11666;DHT22;5889;51.350;6.708;2023-03-14T08:49:32;10.90;99.90
11666;DHT22;5889;51.350;6.708;2023-03-14T08:52:01;10.90;99.90
11666;DHT22;5889;51.350;6.708;2023-03-14T08:54:27;10.90;99.90
11666;DHT22;5889;51.350;6.708;2023-03-14T08:56:54;10.80;99.90
11666;DHT22;5889;51.350;6.708;2023-03-14T08:59:21;10.80;99.90
11666;DHT22;5889;51.350;6.708;2023-03-14T09:01:48;10.80;99.90
11666;DHT22;5889;51.350;6.708;2023-03-14T09:04:16;10.90;99.90
11666;DHT22;5889;51.350;6.708;2023-03-14T09:06:43;10.90;99.90
11666;DHT22;5889;51.350;6.708;2023-03-14T09:09:09;10.90;99.90
11666;DHT22;5889;51.350;6.708;2023-03-14T09:11:36;10.90;99.90
11666;DHT22;5889;51.350;6.708;2023-03-14T09:14:03;10.90;99.90
11666;DHT22;5889;51.350;6.708;2023-03-14T09:16:29;9.90;99.90
11666;DHT22;5889;51.350;6.708;2023-03-14T09:18:56;9.10;99.90
11666;DHT22;5889;51.350;6.708;2023-03-14T09:21:26;9.00;99.90
11666;DHT22;5889;51.350;6.708;2023-03-14T09:23:53;8.80;99.90
11666;DHT22;5889;51.350;6.708;2023-03-14T09:26:20;8.70;99.90
11666;DHT22;5889;51.350;6.708;2023-03-14T09:28:47;8.60;99.90
11666;DHT22;5889;51.350;6.708;2023-03-14T09:31:17;8.50;99.90
11666;DHT22;5889;51.350;6.708;2023-03-14T09:33:44;8.30;99.90
11666;DHT22;5889;51.350;6.708;2023-03-14T09:36:11;8.30;99.90
11666;DHT22;5889;51.350;6.708;2023-03-14T09:38:39;8.40;99.90
11666;DHT22;5889;51.350;6.708;2023-03-14T09:41:14;8.40;99.90
11666;DHT22;5889;51.350;6.708;2023-03-14T09:43:43;8.40;99.90
11666;DHT22;5889;51.350;6.708;2023-03-14T09:46:12;8.40;99.90
11666;DHT22;5889;51.350;6.708;2023-03-14T09:48:39;8.50;99.90
11666;DHT22;5889;51.350;6.708;2023-03-14T09:51:13;8.50;99.90
11666;DHT22;5889;51.350;6.708;2023-03-14T09:53:43;8.50;99.90
11666;DHT22;5889;51.350;6.708;2023-03-14T09:56:13;8.40;99.90
11666;DHT22;5889;51.350;6.708;2023-03-14T09:58:42;8.40;99.90
11666;DHT22;5889;51.350;6.708;2023-03-14T10:01:15;8.40;99.90
11666;DHT22;5889;51.350;6.708;2023-03-14T10:03:44;8.40;99.90
11666;DHT22;5889;51.350;6.708;2023-03-14T10:06:12;8.50;99.90
11666;DHT22;5889;51.350;6.708;2023-03-14T10:08:42;8.50;99.90
11666;DHT22;5889;51.350;6.708;2023-03-14T10:11:14;8.60;99.90
11666;DHT22;5889;51.350;6.708;2023-03-14T10:13:49;8.60;99.90
11666;DHT22;5889;51.350;6.708;2023-03-14T10:16:16;8.60;99.90
11666;DHT22;5889;51.350;6.708;2023-03-14T10:18:45;8.60;99.90
11666;DHT22;5889;51.350;6.708;2023-03-14T10:21:21;8.60;99.90
11666;DHT22;5889;51.350;6.708;2023-03-14T10:23:49;8.60;99.90
11666;DHT22;5889;51.350;6.708;2023-03-14T10:26:17;8.50;99.90
11666;DHT22;5889;51.350;6.708;2023-03-14T10:28:47;8.40;99.90
11666;DHT22;5889;51.350;6.708;2023-03-14T10:31:15;8.30;99.90
11666;DHT22;5889;51.350;6.708;2023-03-14T10:33:42;8.20;99.90
11666;DHT22;5889;51.350;6.708;2023-03-14T10:36:19;8.20;99.90
11666;DHT22;5889;51.350;6.708;2023-03-14T10:38:48;7.90;99.90
11666;DHT22;5889;51.350;6.708;2023-03-14T10:41:17;7.70;99.90
11666;DHT22;5889;51.350;6.708;2023-03-14T10:43:45;7.30;99.90
11666;DHT22;5889;51.350;6.708;2023-03-14T10:46:17;7.10;99.90
11666;DHT22;5889;51.350;6.708;2023-03-14T10:48:44;7.10;99.90
11666;DHT22;5889;51.350;6.708;2023-03-14T10:51:18;7.20;99.90
11666;DHT22;5889;51.350;6.708;2023-03-14T10:53:49;7.20;99.90
11666;DHT22;5889;51.350;6.708;2023-03-14T10:56:18;7.30;99.90
11666;DHT22;5889;51.350;6.708;2023-03-14T10:58:46;7.30;99.90
11666;DHT22;5889;51.350;6.708;2023-03-14T11:01:35;7.30;99.90
11666;DHT22;5889;51.350;6.708;2023-03-14T11:04:18;7.20;99.90
11666;DHT22;5889;51.350;6.708;2023-03-14T11:06:53;7.00;99.90
11666;DHT22;5889;51.350;6.708;2023-03-14T11:09:29;6.90;99.90
11666;DHT22;5889;51.350;6.708;2023-03-14T11:12:03;6.80;99.90
11666;DHT22;5889;51.350;6.708;2023-03-14T11:14:40;6.80;99.90
11666;DHT22;5889;51.350;6.708;2023-03-14T11:17:14;6.80;99.90
11666;DHT22;5889;51.350;6.708;2023-03-14T11:19:53;6.80;99.90
11666;DHT22;5889;51.350;6.708;2023-03-14T11:22:29;6.90;99.90
11666;DHT22;5889;51.350;6.708;2023-03-14T11:25:12;7.00;99.90
11666;DHT22;5889;51.350;6.708;2023-03-14T11:27:43;7.20;99.90
11666;DHT22;5889;51.350;6.708;2023-03-14T11:30:19;7.20;99.90
11666;DHT22;5889;51.350;6.708;2023-03-14T11:32:52;7.20;99.90
11666;DHT22;5889;51.350;6.708;2023-03-14T11:35:25;7.10;99.90
11666;DHT22;5889;51.350;6.708;2023-03-14T11:37:55;7.10;99.90
11666;DHT22;5889;51.350;6.708;2023-03-14T11:40:27;7.20;99.90
11666;DHT22;5889;51.350;6.708;2023-03-14T11:43:10;7.30;99.90
11666;DHT22;5889;51.350;6.708;2023-03-14T11:45:39;7.30;99.90
11666;DHT22;5889;51.350;6.708;2023-03-14T11:48:16;7.30;99.90
11666;DHT22;5889;51.350;6.708;2023-03-14T11:50:45;7.30;99.90
11666;DHT22;5889;51.350;6.708;2023-03-14T11:53:17;7.10;99.90
11666;DHT22;5889;51.350;6.708;2023-03-14T11:55:47;6.90;99.90
11666;DHT22;5889;51.350;6.708;2023-03-14T11:58:19;6.80;99.90
11666;DHT22;5889;51.350;6.708;2023-03-14T12:00:47;6.80;99.90
11666;DHT22;5889;51.350;6.708;2023-03-14T12:03:21;6.90;99.90
11666;DHT22;5889;51.350;6.708;2023-03-14T12:06:02;7.00;99.90
11666;DHT22;5889;51.350;6.708;2023-03-14T12:08:46;7.00;99.90
11666;DHT22;5889;51.350;6.708;2023-03-14T12:11:19;7.30;99.90
11666;DHT22;5889;51.350;6.708;2023-03-14T12:13:48;7.50;99.90
11666;DHT22;5889;51.350;6.708;2023-03-14T12:16:33;7.80;99.90
11666;DHT22;5889;51.350;6.708;2023-03-14T12:19:21;7.90;99.90
11666;DHT22;5889;51.350;6.708;2023-03-14T12:21:53;8.10;99.90
11666;DHT22;5889;51.350;6.708;2023-03-14T12:24:24;8.10;99.90
11666;DHT22;5889;51.350;6.708;2023-03-14T12:26:55;8.00;99.90
11666;DHT22;5889;51.350;6.708;2023-03-14T12:29:22;8.00;99.90
11666;DHT22;5889;51.350;6.708;2023-03-14T12:31:50;8.10;99.90
11666;DHT22;5889;51.350;6.708;2023-03-14T12:34:33;7.90;99.90
11666;DHT22;5889;51.350;6.708;2023-03-14T12:37:14;7.70;99.90
11666;DHT22;5889;51.350;6.708;2023-03-14T12:40:15;7.60;99.90
11666;DHT22;5889;51.350;6.708;2023-03-14T12:42:54;7.10;99.90
11666;DHT22;5889;51.350;6.708;2023-03-14T12:45:25;6.50;99.90
11666;DHT22;5889;51.350;6.708;2023-03-14T12:47:55;6.50;99.90
11666;DHT22;5889;51.350;6.708;2023-03-14T12:50:30;6.60;99.90
11666;DHT22;5889;51.350;6.708;2023-03-14T12:53:25;6.60;99.90
11666;DHT22;5889;51.350;6.708;2023-03-14T12:56:00;6.70;99.90
11666;DHT22;5889;51.350;6.708;2023-03-14T12:58:32;6.80;99.90
11666;DHT22;5889;51.350;6.708;2023-03-14T13:01:03;6.90;99.90
11666;DHT22;5889;51.350;6.708;2023-03-14T13:03:39;7.10;99.90
11666;DHT22;5889;51.350;6.708;2023-03-14T13:06:09;7.00;99.90
11666;DHT22;5889;51.350;6.708;2023-03-14T13:08:39;7.00;99.90
11666;DHT22;5889;51.350;6.708;2023-03-14T13:11:09;7.00;99.90
11666;DHT22;5889;51.350;6.708;2023-03-14T13:13:42;7.20;99.90
11666;DHT22;5889;51.350;6.708;2023-03-14T13:16:15;7.20;99.90
11666;DHT22;5889;51.350;6.708;2023-03-14T13:18:44;7.20;99.90
11666;DHT22;5889;51.350;6.708;2023-03-14T13:21:14;7.20;99.90
11666;DHT22;5889;51.350;6.708;2023-03-14T13:23:54;7.20;99.90
11666;DHT22;5889;51.350;6.708;2023-03-14T13:26:21;7.00;99.90
11666;DHT22;5889;51.350;6.708;2023-03-14T13:28:51;6.50;99.90
11666;DHT22;5889;51.350;6.708;2023-03-14T13:31:21;6.10;99.90
11666;DHT22;5889;51.350;6.708;2023-03-14T13:33:57;6.00;99.90
11666;DHT22;5889;51.350;6.708;2023-03-14T13:36:24;6.00;99.90
11666;DHT22;5889;51.350;6.708;2023-03-14T13:38:56;6.10;99.90
11666;DHT22;5889;51.350;6.708;2023-03-14T13:41:24;6.30;99.90
11666;DHT22;5889;51.350;6.708;2023-03-14T13:44:01;6.40;99.90
11666;DHT22;5889;51.350;6.708;2023-03-14T13:46:29;6.50;99.90
11666;DHT22;5889;51.350;6.708;2023-03-14T13:48:58;6.70;99.90
11666;DHT22;5889;51.350;6.708;2023-03-14T13:51:27;6.90;99.90
11666;DHT22;5889;51.350;6.708;2023-03-14T13:53:57;7.00;99.90
11666;DHT22;5889;51.350;6.708;2023-03-14T13:56:26;7.10;99.90
11666;DHT22;5889;51.350;6.708;2023-03-14T13:58:54;7.30;99.90
11666;DHT22;5889;51.350;6.708;2023-03-14T14:01:23;7.40;99.90
11666;DHT22;5889;51.350;6.708;2023-03-14T14:03:52;7.70;99.90
11666;DHT22;5889;51.350;6.708;2023-03-14T14:06:27;7.70;99.90
11666;DHT22;5889;51.350;6.708;2023-03-14T14:08:55;7.60;99.90
11666;DHT22;5889;51.350;6.708;2023-03-14T14:11:32;7.60;99.90
11666;DHT22;5889;51.350;6.708;2023-03-14T14:14:00;7.70;99.90
11666;DHT22;5889;51.350;6.708;2023-03-14T14:16:28;7.90;99.90
11666;DHT22;5889;51.350;6.708;2023-03-14T14:18:57;8.10;99.90
11666;DHT22;5889;51.350;6.708;2023-03-14T14:21:25;8.20;99.90
11666;DHT22;5889;51.350;6.708;2023-03-14T14:23:53;8.30;99.90
11666;DHT22;5889;51.350;6.708;2023-03-14T14:26:20;8.30;99.90
11666;DHT22;5889;51.350;6.708;2023-03-14T14:29:00;8.20;99.90
11666;DHT22;5889;51.350;6.708;2023-03-14T14:31:26;8.00;98.70
11666;DHT22;5889;51.350;6.708;2023-03-14T14:33:55;7.80;99.90
11666;DHT22;5889;51.350;6.708;2023-03-14T14:36:24;7.80;99.90
11666;DHT22;5889;51.350;6.708;2023-03-14T14:38:53;7.70;99.20
11666;DHT22;5889;51.350;6.708;2023-03-14T14:41:20;7.60;99.90
11666;DHT22;5889;51.350;6.708;2023-03-14T14:43:48;7.60;98.80
11666;DHT22;5889;51.350;6.708;2023-03-14T14:46:18;7.60;99.40
11666;DHT22;5889;51.350;6.708;2023-03-14T14:48:46;7.50;98.60
11666;DHT22;5889;51.350;6.708;2023-03-14T14:51:31;7.50;98.80
11666;DHT22;5889;51.350;6.708;2023-03-14T14:54:04;7.60;99.30
11666;DHT22;5889;51.350;6.708;2023-03-14T14:56:36;7.60;99.90
11666;DHT22;5889;51.350;6.708;2023-03-14T14:59:04;7.70;99.10
11666;DHT22;5889;51.350;6.708;2023-03-14T15:01:36;7.70;99.90
11666;DHT22;5889;51.350;6.708;2023-03-14T15:04:09;7.70;98.30
11666;DHT22;5889;51.350;6.708;2023-03-14T15:06:38;7.70;97.90
11666;DHT22;5889;51.350;6.708;2023-03-14T15:09:08;7.80;97.90
11666;DHT22;5889;51.350;6.708;2023-03-14T15:11:36;7.90;99.90
11666;DHT22;5889;51.350;6.708;2023-03-14T15:14:03;7.80;98.50
11666;DHT22;5889;51.350;6.708;2023-03-14T15:16:31;7.80;96.60
11666;DHT22;5889;51.350;6.708;2023-03-14T15:19:01;7.70;97.90
11666;DHT22;5889;51.350;6.708;2023-03-14T15:21:31;7.70;97.50
11666;DHT22;5889;51.350;6.708;2023-03-14T15:23:57;7.70;98.00
11666;DHT22;5889;51.350;6.708;2023-03-14T15:26:26;7.60;97.10
11666;DHT22;5889;51.350;6.708;2023-03-14T15:28:53;7.70;97.70
11666;DHT22;5889;51.350;6.708;2023-03-14T15:31:21;7.70;99.50
11666;DHT22;5889;51.350;6.708;2023-03-14T15:33:48;7.60;97.50
11666;DHT22;5889;51.350;6.708;2023-03-14T15:36:21;7.60;97.60
11666;DHT22;5889;51.350;6.708;2023-03-14T15:38:49;7.50;98.00
11666;DHT22;5889;51.350;6.708;2023-03-14T15:41:16;7.50;98.00
11666;DHT22;5889;51.350;6.708;2023-03-14T15:43:43;7.50;98.10
11666;DHT22;5889;51.350;6.708;2023-03-14T15:46:14;7.50;98.10
11666;DHT22;5889;51.350;6.708;2023-03-14T15:48:46;7.40;96.80
11666;DHT22;5889;51.350;6.708;2023-03-14T15:51:17;7.40;98.50
11666;DHT22;5889;51.350;6.708;2023-03-14T15:53:45;7.40;98.00
11666;DHT22;5889;51.350;6.708;2023-03-14T15:56:13;7.40;98.80
11666;DHT22;5889;51.350;6.708;2023-03-14T15:58:40;7.40;99.30
11666;DHT22;5889;51.350;6.708;2023-03-14T16:01:08;7.40;98.50
11666;DHT22;5889;51.350;6.708;2023-03-14T16:03:35;7.30;96.90
11666;DHT22;5889;51.350;6.708;2023-03-14T16:06:03;7.20;97.50
11666;DHT22;5889;51.350;6.708;2023-03-14T16:08:31;7.20;97.80